Welcome to our new website - Welkom op onze vernieuwde website - Bienvenue sur notre nouveau site web - Willkommen auf unserer neuen Website
Check our progress frequently. Prüfen Sie unsere Fortschritte regelmäßig. Consultez notre progression fréquemment. Komt u straks nog eens terug


Blik over 't Veldj richting Zuid-Westen Meer informatie Blik over 't Veldj richting Zuid-Westen


Onweer radar Meer informatie blitzortung!


Regen radar Meer informatie rain snow radar


Bezoek onze andere website:

Template documentation
and downloads

And another site


METAR rapporten vliegvelden

   
EBAW - Antwerp
Gewijzigd: 17-12-2018 15:50
Licht bewolkt  
Licht bewolkt  
   Wind: WZW 16.7 km/h
Wind: WZW 16.7 km/h
Temperatuur: 9°C
Voelt als: 7°C
Dauwpunt: 5°C
Vochtigheid: 76%
Barometer: 1021 hPa
Bewolking: Licht bewolkt
Zicht: meer dan 10 km
Bewolking: Licht bewolkt 670.6 m
EBAW 171450Z 25009KT 9999 FEW022 09/05 Q1021 NOSIG
EBLG - Liège
Gewijzigd: 17-12-2018 15:50
Licht bewolkt  
Licht bewolkt  
   Wind: ZW 20.4 km/h
Wind: ZW 20.4 km/h
Temperatuur: 6°C
Voelt als: 2°C
Dauwpunt: 4°C
Vochtigheid: 87%
Barometer: 1021 hPa
Bewolking: Licht bewolkt
Zicht: meer dan 10 km
Bewolking: Licht bewolkt 487.7 m
EBLG 171450Z 23011KT 9999 FEW016 06/04 Q1021 NOSIG
EBCV - Mons/Bergen
Gewijzigd: 17-12-2018 15:55
Licht bewolkt  
Licht bewolkt  
   Wind: ZZW 16.7 km/h
Wind: ZZW 16.7 km/h
Temperatuur: 8°C
Voelt als: 5°C
Dauwpunt: 6°C
Vochtigheid: 87%
Barometer: 1022 hPa
Bewolking: Licht bewolkt
Zicht: meer dan 10 km
Bewolking: Licht bewolkt 365.8 m
EBCV 171455Z AUTO 21009KT 9999 FEW012/// 08/06 Q1022 BLU
EHBK - Maastricht
Gewijzigd: 17-12-2018 15:55
Gedeeltelijk bewolkt  
Gedeeltelijk bewolkt  
   Wind: WZW 16.7 km/h
Wind: WZW 16.7 km/h
Temperatuur: 8°C
Voelt als: 5°C
Dauwpunt: 5°C
Vochtigheid: 82%
Barometer: 1020 hPa
Bewolking: Gedeeltelijk bewolkt
Zicht: meer dan 10 km
Bewolking: Licht bewolkt 487.7 m,
Gedeeltelijk bewolkt 579.1 m
EHBK 171455Z AUTO 24009KT 210V270 9999 FEW016 SCT019 08/05 Q1020 NOSIG
ELLX - Luxemburg
Gewijzigd: 17-12-2018 15:50
Grotendeels bewolkt  
Grotendeels bewolkt  
   Wind: ZW 14.8 km/h
Wind: ZW 14.8 km/h
Temperatuur: 5°C
Voelt als: 2°C
Dauwpunt: 4°C
Vochtigheid: 93%
Barometer: 1022 hPa
Bewolking: Grotendeels bewolkt
Zicht: 7 km
Bewolking: Gedeeltelijk bewolkt 121.9 m,
Grotendeels bewolkt 182.9 m
ELLX 171450Z 22008KT 7000 SCT004 BKN006 05/04 Q1022 NOSIG
EBOS - Oostende
Gewijzigd: 17-12-2018 15:50
Licht bewolkt  
Licht bewolkt  
   Wind: WZW 16.7 km/h
Wind: WZW 16.7 km/h
Temperatuur: 8°C
Voelt als: 5°C
Dauwpunt: 6°C
Vochtigheid: 87%
Barometer: 1021 hPa
Bewolking: Licht bewolkt
Zicht: meer dan 10 km
Bewolking: Licht bewolkt 609.6 m
EBOS 171450Z 24009KT 9999 FEW020 08/06 Q1021 NOSIG

Script ontwikkeld door  Saratoga-weather.org Aangepast voor de template door  Weerstation Leuven

U vindt ons ook hier:

Weather Underground

Apparatuur in gebruik:

Weerstation
Davis Vantage Vue

Webleverancier
One.com

Davis Vantage Vue

One.com